createdAt,value
2023-03-06T00:00:58.762Z,4.82
2023-03-06T00:04:01.859Z,4.80
2023-03-06T00:07:04.835Z,4.73
2023-03-06T00:10:08.770Z,4.70
2023-03-06T00:13:14.372Z,4.69
2023-03-06T00:16:17.598Z,4.69
2023-03-06T00:19:20.654Z,4.77
2023-03-06T00:22:23.770Z,4.76
2023-03-06T00:25:26.916Z,4.75
2023-03-06T00:28:31.708Z,4.81
2023-03-06T00:31:36.183Z,4.79
2023-03-06T00:34:39.593Z,4.72
2023-03-06T00:37:44.880Z,4.75
2023-03-06T00:40:48.343Z,4.76
2023-03-06T00:43:51.415Z,4.75
2023-03-06T00:46:54.438Z,4.92
2023-03-06T00:49:57.655Z,4.88
2023-03-06T00:53:00.605Z,4.81
2023-03-06T00:56:03.736Z,4.77
2023-03-06T00:59:07.052Z,4.84
2023-03-06T01:02:10.459Z,4.69
2023-03-06T01:05:14.478Z,4.76
2023-03-06T01:08:17.626Z,4.75
2023-03-06T01:11:20.601Z,4.76
2023-03-06T01:14:24.432Z,4.81
2023-03-06T01:17:27.410Z,4.84
2023-03-06T01:20:30.498Z,4.77
2023-03-06T01:23:34.330Z,4.75
2023-03-06T01:26:37.605Z,4.67
2023-03-06T01:29:40.914Z,4.61
2023-03-06T01:32:44.491Z,4.58
2023-03-06T01:35:47.799Z,4.55
2023-03-06T01:38:51.039Z,4.70
2023-03-06T01:41:54.227Z,4.62
2023-03-06T01:45:13.760Z,4.67
2023-03-06T01:48:21.253Z,4.66
2023-03-06T01:51:33.656Z,4.60
2023-03-06T01:55:09.672Z,4.72
2023-03-06T01:58:18.090Z,4.75
2023-03-06T02:01:21.829Z,4.79
2023-03-06T02:04:25.140Z,4.72
2023-03-06T02:07:28.630Z,4.69
2023-03-06T02:10:31.914Z,4.63
2023-03-06T02:13:36.498Z,4.67
2023-03-06T02:16:40.170Z,4.65
2023-03-06T02:19:48.497Z,4.60
2023-03-06T02:23:06.175Z,4.57
2023-03-06T02:26:10.336Z,4.67
2023-03-06T02:29:18.754Z,4.62
2023-03-06T02:32:22.385Z,4.65
2023-03-06T02:35:32.311Z,4.67
2023-03-06T02:38:41.692Z,4.77
2023-03-06T02:41:44.724Z,4.52
2023-03-06T02:44:49.605Z,4.58
2023-03-06T02:47:53.772Z,4.47
2023-03-06T02:50:56.693Z,4.56
2023-03-06T02:54:00.017Z,4.56
2023-03-06T02:57:03.287Z,4.36
2023-03-06T03:00:08.707Z,4.52
2023-03-06T03:03:11.761Z,4.44
2023-03-06T03:06:14.751Z,4.58
2023-03-06T03:09:18.399Z,4.64
2023-03-06T03:12:22.671Z,4.48
2023-03-06T03:15:26.286Z,4.47
2023-03-06T03:18:29.792Z,4.43
2023-03-06T03:21:32.749Z,4.48
2023-03-06T03:24:36.134Z,4.45
2023-03-06T03:27:39.785Z,4.35
2023-03-06T03:30:44.054Z,4.43
2023-03-06T03:33:47.941Z,4.40
2023-03-06T03:36:51.470Z,4.28
2023-03-06T03:39:55.042Z,4.35
2023-03-06T03:42:59.435Z,4.31
2023-03-06T03:46:02.657Z,4.27
2023-03-06T03:49:06.567Z,4.32
2023-03-06T03:52:09.970Z,4.38
2023-03-06T03:55:15.263Z,4.38
2023-03-06T03:58:18.839Z,4.36
2023-03-06T04:01:21.753Z,4.26
2023-03-06T04:04:25.466Z,4.33
2023-03-06T04:07:28.806Z,4.20
2023-03-06T04:10:32.165Z,4.09
2023-03-06T04:13:38.272Z,4.09
2023-03-06T04:16:42.386Z,4.06
2023-03-06T04:19:45.580Z,4.07
2023-03-06T04:22:48.893Z,4.11
2023-03-06T04:25:53.029Z,4.12
2023-03-06T04:28:58.612Z,4.26
2023-03-06T04:32:02.915Z,4.17
2023-03-06T04:35:06.399Z,4.17
2023-03-06T04:38:15.621Z,4.15
2023-03-06T04:41:18.738Z,4.26
2023-03-06T04:44:21.922Z,4.15
2023-03-06T04:47:24.924Z,4.15
2023-03-06T04:50:32.335Z,4.09
2023-03-06T04:53:35.527Z,4.13
2023-03-06T04:56:38.656Z,4.15
2023-03-06T04:59:41.743Z,4.18
2023-03-06T05:02:45.575Z,4.19
2023-03-06T05:05:48.705Z,4.18
2023-03-06T05:08:51.821Z,4.14
2023-03-06T05:11:55.181Z,4.21
2023-03-06T05:14:58.451Z,4.23
2023-03-06T05:18:01.578Z,4.24
2023-03-06T05:21:05.535Z,4.18
2023-03-06T05:24:09.813Z,4.15
2023-03-06T05:27:13.431Z,4.18
2023-03-06T05:30:17.708Z,4.19
2023-03-06T05:33:20.730Z,4.11
2023-03-06T05:36:23.813Z,4.16
2023-03-06T05:39:30.352Z,4.24
2023-03-06T05:42:33.390Z,4.21
2023-03-06T05:45:36.715Z,4.21
2023-03-06T05:48:40.047Z,4.22
2023-03-06T05:51:43.137Z,4.20
2023-03-06T05:54:50.774Z,4.14
2023-03-06T05:57:54.093Z,4.11
2023-03-06T06:00:57.392Z,4.10
2023-03-06T06:04:00.521Z,4.03
2023-03-06T06:07:04.016Z,4.07
2023-03-06T06:10:07.944Z,4.03
2023-03-06T06:13:10.841Z,4.18
2023-03-06T06:16:19.651Z,4.30
2023-03-06T06:19:23.155Z,4.27
2023-03-06T06:22:26.368Z,4.36
2023-03-06T06:25:29.521Z,4.33
2023-03-06T06:28:33.591Z,4.38
2023-03-06T06:31:37.321Z,4.33
2023-03-06T06:34:40.496Z,4.15
2023-03-06T06:37:43.731Z,4.17
2023-03-06T06:41:04.219Z,4.27
2023-03-06T06:44:14.593Z,4.31
2023-03-06T06:47:24.226Z,4.35
2023-03-06T06:50:27.922Z,4.45
2023-03-06T06:53:31.522Z,4.60
2023-03-06T06:56:35.709Z,4.73
2023-03-06T06:59:39.747Z,4.91
2023-03-06T07:02:42.915Z,5.05
2023-03-06T07:05:46.256Z,4.95
2023-03-06T07:08:49.880Z,5.11
2023-03-06T07:12:09.411Z,5.11
2023-03-06T07:15:18.753Z,5.09
2023-03-06T07:18:22.273Z,5.31
2023-03-06T07:21:26.036Z,5.59
2023-03-06T07:24:29.716Z,5.71
2023-03-06T07:27:33.409Z,5.60
2023-03-06T07:30:36.714Z,5.58
2023-03-06T07:33:40.170Z,5.50
2023-03-06T07:36:43.240Z,5.38
2023-03-06T07:39:47.665Z,5.35
2023-03-06T07:42:54.524Z,5.33
2023-03-06T07:46:02.469Z,5.45
2023-03-06T07:49:06.181Z,5.44
2023-03-06T07:52:10.008Z,5.60
2023-03-06T07:55:14.567Z,5.79
2023-03-06T07:58:20.672Z,5.73
2023-03-06T08:01:24.969Z,5.89
2023-03-06T08:04:29.116Z,5.76
2023-03-06T08:07:33.765Z,6.23
2023-03-06T08:10:37.581Z,6.22
2023-03-06T08:13:41.720Z,6.26
2023-03-06T08:16:45.651Z,6.25
2023-03-06T08:19:49.078Z,6.19
2023-03-06T08:22:52.768Z,6.34
2023-03-06T08:26:00.947Z,6.28
2023-03-06T08:29:05.025Z,6.33
2023-03-06T08:32:12.577Z,6.21
2023-03-06T08:35:16.387Z,6.19
2023-03-06T08:38:19.775Z,6.16
2023-03-06T08:41:25.198Z,6.10
2023-03-06T08:44:29.038Z,6.01
2023-03-06T08:47:32.415Z,5.99
2023-03-06T08:50:36.048Z,6.07
2023-03-06T08:53:43.522Z,6.18
2023-03-06T08:56:51.081Z,6.07
2023-03-06T08:59:54.405Z,6.30
2023-03-06T09:02:58.783Z,6.18
2023-03-06T09:06:05.884Z,6.21
2023-03-06T09:09:12.523Z,6.35
2023-03-06T09:12:16.013Z,6.37
2023-03-06T09:15:21.179Z,6.41
2023-03-06T09:18:24.911Z,6.48
2023-03-06T09:21:29.099Z,6.43
2023-03-06T09:24:33.103Z,6.41
2023-03-06T09:27:36.839Z,6.50
2023-03-06T09:30:41.434Z,6.64
2023-03-06T09:33:45.207Z,6.53
2023-03-06T09:36:56.711Z,6.45
2023-03-06T09:40:00.911Z,6.57
2023-03-06T09:43:05.520Z,6.71
2023-03-06T09:46:19.307Z,6.59
2023-03-06T09:50:11.597Z,6.86
2023-03-06T09:53:27.000Z,6.91
2023-03-06T09:56:33.640Z,7.17
2023-03-06T09:59:48.314Z,7.46
2023-03-06T10:03:07.993Z,8.45
2023-03-06T10:06:26.685Z,8.61
2023-03-06T10:09:41.992Z,8.49
2023-03-06T10:13:27.872Z,8.51
2023-03-06T10:16:32.864Z,8.56
2023-03-06T10:19:40.268Z,8.85
2023-03-06T10:23:00.864Z,9.18
2023-03-06T10:26:19.256Z,9.64
2023-03-06T10:29:33.537Z,9.81
2023-03-06T10:33:04.047Z,10.09
2023-03-06T10:36:30.112Z,9.81
2023-03-06T10:39:45.938Z,9.89
2023-03-06T10:43:01.518Z,10.18
2023-03-06T10:46:15.333Z,10.32
2023-03-06T10:49:36.115Z,10.52
2023-03-06T10:52:40.256Z,10.32
2023-03-06T10:55:58.565Z,10.44
2023-03-06T10:59:11.144Z,10.68
2023-03-06T11:02:30.303Z,10.59
2023-03-06T11:05:36.512Z,10.24
2023-03-06T11:08:43.191Z,10.46
2023-03-06T11:11:58.030Z,10.56
2023-03-06T11:15:15.255Z,10.66
2023-03-06T11:18:18.699Z,10.74
2023-03-06T11:21:34.892Z,10.69
2023-03-06T11:24:45.920Z,10.73
2023-03-06T11:27:58.230Z,10.74
2023-03-06T11:31:13.891Z,10.31
2023-03-06T11:34:27.942Z,10.35
2023-03-06T11:37:44.343Z,10.56
2023-03-06T11:40:59.035Z,10.46
2023-03-06T11:44:15.639Z,10.71
2023-03-06T11:47:22.580Z,10.91
2023-03-06T11:50:31.429Z,10.98
2023-03-06T11:53:40.049Z,11.09
2023-03-06T11:57:00.154Z,10.56
2023-03-06T12:00:54.217Z,10.86
2023-03-06T12:04:29.651Z,10.79
2023-03-06T12:07:37.681Z,10.93
2023-03-06T12:10:51.987Z,10.75
2023-03-06T12:14:16.744Z,10.82
2023-03-06T12:17:35.914Z,10.62
2023-03-06T12:20:42.408Z,10.60
2023-03-06T12:24:08.664Z,10.51
2023-03-06T12:27:37.345Z,10.66
2023-03-06T12:30:52.824Z,10.45
2023-03-06T12:34:21.928Z,10.40
2023-03-06T12:37:31.409Z,10.43
2023-03-06T12:40:37.386Z,10.46
2023-03-06T12:43:50.730Z,10.21
2023-03-06T12:47:08.670Z,10.22
2023-03-06T12:50:31.279Z,10.22
2023-03-06T12:53:37.256Z,10.44
2023-03-06T12:56:42.273Z,10.46
2023-03-06T12:59:48.655Z,10.38
2023-03-06T13:03:11.256Z,10.24
2023-03-06T13:06:50.961Z,10.02
2023-03-06T13:10:34.589Z,9.79
2023-03-06T13:13:48.108Z,9.80
2023-03-06T13:16:51.692Z,9.54
2023-03-06T13:20:35.645Z,9.48
2023-03-06T13:23:51.486Z,9.38
2023-03-06T13:26:58.391Z,9.22
2023-03-06T13:30:20.053Z,9.26
2023-03-06T13:33:33.226Z,9.31
2023-03-06T13:36:39.824Z,9.21
2023-03-06T13:39:58.877Z,9.26
2023-03-06T13:43:18.952Z,9.29
2023-03-06T13:46:27.529Z,9.29
2023-03-06T13:49:32.710Z,9.34
2023-03-06T13:52:45.955Z,9.24
2023-03-06T13:56:00.014Z,9.45
2023-03-06T13:59:22.242Z,9.40
2023-03-06T14:03:00.629Z,9.44
2023-03-06T14:06:35.788Z,9.30
2023-03-06T14:09:43.618Z,9.25
2023-03-06T14:12:49.962Z,9.22
2023-03-06T14:15:55.490Z,9.29
2023-03-06T14:19:00.792Z,9.31
2023-03-06T14:22:06.063Z,9.32
2023-03-06T14:25:28.068Z,9.37
2023-03-06T14:28:35.245Z,9.28
2023-03-06T14:31:42.944Z,9.33
2023-03-06T14:34:47.192Z,9.04
2023-03-06T14:37:55.790Z,9.11
2023-03-06T14:40:59.076Z,9.10
2023-03-06T14:44:26.627Z,8.91
2023-03-06T14:47:32.341Z,8.82
2023-03-06T14:50:36.723Z,8.79
2023-03-06T14:53:39.844Z,8.61
2023-03-06T14:56:46.217Z,8.45
2023-03-06T14:59:56.418Z,8.52
2023-03-06T15:03:00.266Z,8.38
2023-03-06T15:06:05.127Z,8.29
2023-03-06T15:09:24.508Z,8.24
2023-03-06T15:12:27.472Z,8.32
2023-03-06T15:15:32.797Z,8.32
2023-03-06T15:18:39.357Z,8.36
2023-03-06T15:21:48.565Z,8.44
2023-03-06T15:24:52.012Z,8.50
2023-03-06T15:27:58.216Z,8.53
2023-03-06T15:31:21.313Z,8.58
2023-03-06T15:34:24.291Z,8.68
2023-03-06T15:37:29.162Z,8.59
2023-03-06T15:40:33.190Z,8.57
2023-03-06T15:43:40.432Z,8.50
2023-03-06T15:46:44.585Z,8.43
2023-03-06T15:49:52.170Z,8.40
2023-03-06T15:52:55.621Z,8.45
2023-03-06T15:55:59.752Z,8.48
2023-03-06T15:59:03.641Z,8.44
2023-03-06T16:02:18.970Z,8.49
2023-03-06T16:05:22.497Z,8.46
2023-03-06T16:08:25.839Z,8.39
2023-03-06T16:11:43.362Z,8.36
2023-03-06T16:14:47.948Z,8.24
2023-03-06T16:17:51.171Z,8.17
2023-03-06T16:20:54.244Z,8.05
2023-03-06T16:23:57.582Z,7.98
2023-03-06T16:27:02.212Z,7.90
2023-03-06T16:30:05.827Z,7.94
2023-03-06T16:33:11.075Z,7.74
2023-03-06T16:36:20.927Z,7.61
2023-03-06T16:39:24.596Z,7.69
2023-03-06T16:42:28.249Z,7.51
2023-03-06T16:45:31.828Z,7.47
2023-03-06T16:48:34.904Z,7.58
2023-03-06T16:51:39.886Z,7.55
2023-03-06T16:54:44.693Z,7.57
2023-03-06T16:57:48.448Z,7.54
2023-03-06T17:00:51.989Z,7.48
2023-03-06T17:03:55.206Z,7.52
2023-03-06T17:06:58.471Z,7.44
2023-03-06T17:10:02.605Z,7.47
2023-03-06T17:13:07.553Z,7.44
2023-03-06T17:16:16.088Z,7.45
2023-03-06T17:19:19.159Z,7.40
2023-03-06T17:22:22.701Z,7.33
2023-03-06T17:25:26.225Z,7.30
2023-03-06T17:28:29.457Z,7.30
2023-03-06T17:31:33.204Z,7.27
2023-03-06T17:34:36.650Z,7.28
2023-03-06T17:37:39.732Z,7.14
2023-03-06T17:40:43.091Z,7.12
2023-03-06T17:43:46.497Z,7.17
2023-03-06T17:46:50.240Z,7.25
2023-03-06T17:49:54.248Z,7.12
2023-03-06T17:52:57.443Z,7.15
2023-03-06T17:56:12.821Z,7.17
2023-03-06T17:59:16.878Z,7.21
2023-03-06T18:02:20.825Z,7.13
2023-03-06T18:05:24.115Z,7.16
2023-03-06T18:08:27.588Z,7.17
2023-03-06T18:11:31.413Z,7.02
2023-03-06T18:14:34.985Z,7.12
2023-03-06T18:17:38.792Z,7.12
2023-03-06T18:20:42.226Z,6.99
2023-03-06T18:23:45.589Z,6.90
2023-03-06T18:26:49.209Z,7.03
2023-03-06T18:29:52.885Z,7.13
2023-03-06T18:32:56.469Z,7.08
2023-03-06T18:36:03.686Z,7.00
2023-03-06T18:39:09.197Z,6.94
2023-03-06T18:42:12.294Z,7.07
2023-03-06T18:45:15.925Z,7.18
2023-03-06T18:48:19.218Z,7.03
2023-03-06T18:51:22.584Z,7.02
2023-03-06T18:54:28.704Z,7.05
2023-03-06T18:57:32.049Z,7.09
2023-03-06T19:00:35.617Z,7.17
2023-03-06T19:03:40.763Z,7.18
2023-03-06T19:06:44.326Z,7.14
2023-03-06T19:09:51.169Z,7.09
2023-03-06T19:12:54.512Z,7.06
2023-03-06T19:15:58.545Z,7.20
2023-03-06T19:19:02.136Z,7.09
2023-03-06T19:22:05.478Z,7.07
2023-03-06T19:25:09.598Z,6.94
2023-03-06T19:28:13.060Z,6.99
2023-03-06T19:31:20.337Z,6.97
2023-03-06T19:34:23.876Z,6.92
2023-03-06T19:37:27.181Z,7.05
2023-03-06T19:40:32.368Z,7.00
2023-03-06T19:43:36.378Z,7.06
2023-03-06T19:46:40.838Z,6.97
2023-03-06T19:49:44.451Z,6.93
2023-03-06T19:52:47.575Z,6.93
2023-03-06T19:55:51.535Z,6.95
2023-03-06T19:58:55.643Z,6.96
2023-03-06T20:01:58.810Z,6.96
2023-03-06T20:05:02.003Z,6.90
2023-03-06T20:08:05.610Z,6.85
2023-03-06T20:11:38.549Z,6.84
2023-03-06T20:14:42.872Z,6.79
2023-03-06T20:17:46.446Z,6.64
2023-03-06T20:21:00.948Z,6.53
2023-03-06T20:24:05.960Z,6.57
2023-03-06T20:27:09.293Z,6.54
2023-03-06T20:30:12.969Z,6.57
2023-03-06T20:33:17.019Z,6.54
2023-03-06T20:36:28.133Z,6.56
2023-03-06T20:39:31.633Z,6.54
2023-03-06T20:42:35.227Z,6.54
2023-03-06T20:45:38.656Z,6.62
2023-03-06T20:48:43.570Z,6.66
2023-03-06T20:51:47.294Z,6.49
2023-03-06T20:54:51.052Z,6.52
2023-03-06T20:57:54.416Z,6.57
2023-03-06T21:01:00.346Z,6.58
2023-03-06T21:04:06.090Z,6.60
2023-03-06T21:07:09.211Z,6.62
2023-03-06T21:10:13.651Z,6.56
2023-03-06T21:13:17.310Z,6.57
2023-03-06T21:16:22.680Z,6.49
2023-03-06T21:19:26.482Z,6.47
2023-03-06T21:22:30.401Z,6.57
2023-03-06T21:25:34.259Z,6.51
2023-03-06T21:28:37.424Z,6.46
2023-03-06T21:31:41.163Z,6.41
2023-03-06T21:34:44.342Z,6.33
2023-03-06T21:37:47.478Z,6.32
2023-03-06T21:40:51.238Z,6.37
2023-03-06T21:43:59.385Z,6.47
2023-03-06T21:47:02.490Z,6.48
2023-03-06T21:50:07.688Z,6.32
2023-03-06T21:53:12.063Z,6.05
2023-03-06T21:56:18.422Z,6.13
2023-03-06T21:59:21.629Z,6.16
2023-03-06T22:02:25.375Z,6.11
2023-03-06T22:05:28.425Z,6.06
2023-03-06T22:08:31.423Z,6.01
2023-03-06T22:11:37.455Z,5.99
2023-03-06T22:14:40.531Z,6.00
2023-03-06T22:17:43.630Z,5.92
2023-03-06T22:20:47.530Z,6.00
2023-03-06T22:23:57.649Z,5.96
2023-03-06T22:27:00.754Z,5.95
2023-03-06T22:30:05.060Z,5.81
2023-03-06T22:33:08.177Z,5.78
2023-03-06T22:36:13.675Z,5.84
2023-03-06T22:39:17.073Z,5.83
2023-03-06T22:42:20.229Z,5.71
2023-03-06T22:45:23.277Z,5.74
2023-03-06T22:48:26.253Z,5.81
2023-03-06T22:51:30.002Z,5.79
2023-03-06T22:54:33.759Z,5.71
2023-03-06T22:57:36.939Z,5.72
2023-03-06T23:00:40.050Z,5.68
2023-03-06T23:03:46.206Z,5.75
2023-03-06T23:06:49.264Z,5.67
2023-03-06T23:09:52.324Z,5.65
2023-03-06T23:13:14.410Z,5.63
2023-03-06T23:16:36.814Z,5.59
2023-03-06T23:19:58.482Z,5.58
2023-03-06T23:23:19.917Z,5.64
2023-03-06T23:26:26.428Z,5.65
2023-03-06T23:29:30.128Z,5.60
2023-03-06T23:32:33.956Z,5.57
2023-03-06T23:35:39.252Z,5.60
2023-03-06T23:38:42.665Z,5.51
2023-03-06T23:41:45.792Z,5.54
2023-03-06T23:44:49.258Z,5.51
2023-03-06T23:47:52.283Z,5.43
2023-03-06T23:50:56.136Z,5.39
2023-03-06T23:54:00.531Z,5.45
2023-03-06T23:57:03.706Z,5.46
